sensor_id;sensor_type;location;lat;lon;timestamp;temperature;humidity
55719;DHT22;41623;46.104;19.656;2022-09-09T00:20:12;614.40;1894.40
55719;DHT22;41623;46.104;19.656;2022-09-09T00:22:42;589.60;1894.40
55719;DHT22;41623;46.104;19.656;2022-09-09T00:25:15;589.50;1920.00
55719;DHT22;41623;46.104;19.656;2022-09-09T00:42:44;614.60;1868.80
55719;DHT22;41623;46.104;19.656;2022-09-09T00:45:19;614.40;1868.80
55719;DHT22;41623;46.104;19.656;2022-09-09T00:47:50;614.40;1843.20
55719;DHT22;41623;46.104;19.656;2022-09-09T00:50:32;614.50;1843.20
55719;DHT22;41623;46.104;19.656;2022-09-09T00:56:20;614.60;1817.60
55719;DHT22;41623;46.104;19.656;2022-09-09T00:59:05;614.60;1817.60
55719;DHT22;41623;46.104;19.656;2022-09-09T01:01:33;614.70;1766.40
55719;DHT22;41623;46.104;19.656;2022-09-09T01:04:03;615.00;1766.40
55719;DHT22;41623;46.104;19.656;2022-09-09T01:06:35;614.90;1792.00
55719;DHT22;41623;46.104;19.656;2022-09-09T01:09:18;614.80;1792.00
55719;DHT22;41623;46.104;19.656;2022-09-09T01:17:09;614.80;1766.40
55719;DHT22;41623;46.104;19.656;2022-09-09T01:25:07;614.80;1817.60
55719;DHT22;41623;46.104;19.656;2022-09-09T01:27:32;614.80;1817.60
55719;DHT22;41623;46.104;19.656;2022-09-09T01:29:58;614.80;1766.40
55719;DHT22;41623;46.104;19.656;2022-09-09T01:32:46;614.80;1792.00
55719;DHT22;41623;46.104;19.656;2022-09-09T01:38:04;614.80;1740.80
55719;DHT22;41623;46.104;19.656;2022-09-09T02:33:33;614.50;1868.80
55719;DHT22;41623;46.104;19.656;2022-09-09T02:36:01;589.60;1894.40
55719;DHT22;41623;46.104;19.656;2022-09-09T04:51:13;564.00;1971.20
55719;DHT22;41623;46.104;19.656;2022-09-09T04:53:39;563.70;1945.60
55719;DHT22;41623;46.104;19.656;2022-09-09T09:50:49;615.20;1612.80
55719;DHT22;41623;46.104;19.656;2022-09-09T09:53:25;615.00;1638.40
55719;DHT22;41623;46.104;19.656;2022-09-09T09:56:00;614.90;1664.00
55719;DHT22;41623;46.104;19.656;2022-09-09T09:58:29;614.90;1638.40
55719;DHT22;41623;46.104;19.656;2022-09-09T10:00:56;615.00;1612.80
55719;DHT22;41623;46.104;19.656;2022-09-09T10:03:28;615.00;1612.80
55719;DHT22;41623;46.104;19.656;2022-09-09T10:05:55;615.10;1612.80
55719;DHT22;41623;46.104;19.656;2022-09-09T10:08:23;615.10;1638.40
55719;DHT22;41623;46.104;19.656;2022-09-09T10:13:37;615.00;1638.40
55719;DHT22;41623;46.104;19.656;2022-09-09T10:19:09;615.10;1612.80
55719;DHT22;41623;46.104;19.656;2022-09-09T10:46:01;615.00;1638.40
55719;DHT22;41623;46.104;19.656;2022-09-09T10:51:33;615.10;1612.80
55719;DHT22;41623;46.104;19.656;2022-09-09T10:54:19;615.10;1587.20
55719;DHT22;41623;46.104;19.656;2022-09-09T10:56:54;615.20;1715.20
55719;DHT22;41623;46.104;19.656;2022-09-09T10:59:25;615.20;1587.20
55719;DHT22;41623;46.104;19.656;2022-09-09T11:07:41;640.00;1484.80
55719;DHT22;41623;46.104;19.656;2022-09-09T11:10:25;615.30;1510.40
55719;DHT22;41623;46.104;19.656;2022-09-09T11:13:01;615.30;1536.00
55719;DHT22;41623;46.104;19.656;2022-09-09T11:15:42;640.00;1536.00
55719;DHT22;41623;46.104;19.656;2022-09-09T11:18:15;640.00;1561.60
55719;DHT22;41623;46.104;19.656;2022-09-09T11:20:45;640.00;1510.40
55719;DHT22;41623;46.104;19.656;2022-09-09T11:23:20;640.00;1510.40
55719;DHT22;41623;46.104;19.656;2022-09-09T11:25:57;640.00;1536.00
55719;DHT22;41623;46.104;19.656;2022-09-09T11:35:18;640.10;1536.00
55719;DHT22;41623;46.104;19.656;2022-09-09T11:42:40;640.10;1536.00
55719;DHT22;41623;46.104;19.656;2022-09-09T11:45:26;640.10;1510.40
55719;DHT22;41623;46.104;19.656;2022-09-09T11:48:04;640.10;1536.00
55719;DHT22;41623;46.104;19.656;2022-09-09T11:50:35;640.10;1510.40
55719;DHT22;41623;46.104;19.656;2022-09-09T11:55:39;640.10;1536.00
55719;DHT22;41623;46.104;19.656;2022-09-09T11:58:15;640.10;1536.00
55719;DHT22;41623;46.104;19.656;2022-09-09T12:00:43;640.10;1536.00
55719;DHT22;41623;46.104;19.656;2022-09-09T12:06:31;640.10;1484.80
55719;DHT22;41623;46.104;19.656;2022-09-09T12:09:18;640.10;1510.40
55719;DHT22;41623;46.104;19.656;2022-09-09T12:11:45;640.10;1510.40
55719;DHT22;41623;46.104;19.656;2022-09-09T12:14:54;640.10;1510.40
55719;DHT22;41623;46.104;19.656;2022-09-09T12:17:22;640.10;1510.40
55719;DHT22;41623;46.104;19.656;2022-09-09T12:19:48;640.10;1510.40
55719;DHT22;41623;46.104;19.656;2022-09-09T12:27:36;640.10;1510.40
55719;DHT22;41623;46.104;19.656;2022-09-09T12:30:12;640.10;1510.40
55719;DHT22;41623;46.104;19.656;2022-09-09T12:32:40;640.10;1510.40
55719;DHT22;41623;46.104;19.656;2022-09-09T12:35:19;640.10;1510.40
55719;DHT22;41623;46.104;19.656;2022-09-09T12:37:58;640.10;1484.80
55719;DHT22;41623;46.104;19.656;2022-09-09T12:40:26;640.10;1510.40
55719;DHT22;41623;46.104;19.656;2022-09-09T12:42:53;640.10;1510.40
55719;DHT22;41623;46.104;19.656;2022-09-09T12:45:21;640.10;1484.80
55719;DHT22;41623;46.104;19.656;2022-09-09T12:48:00;640.10;1484.80
55719;DHT22;41623;46.104;19.656;2022-09-09T12:50:36;640.10;1510.40
55719;DHT22;41623;46.104;19.656;2022-09-09T12:53:22;640.10;1510.40
55719;DHT22;41623;46.104;19.656;2022-09-09T12:55:56;640.10;1510.40
55719;DHT22;41623;46.104;19.656;2022-09-09T12:58:23;640.10;1510.40
55719;DHT22;41623;46.104;19.656;2022-09-09T13:00:52;640.10;1510.40
55719;DHT22;41623;46.104;19.656;2022-09-09T13:03:20;640.10;1510.40
55719;DHT22;41623;46.104;19.656;2022-09-09T13:05:47;640.10;1510.40
55719;DHT22;41623;46.104;19.656;2022-09-09T13:08:14;640.10;1510.40
55719;DHT22;41623;46.104;19.656;2022-09-09T13:13:19;640.20;1510.40
55719;DHT22;41623;46.104;19.656;2022-09-09T13:15:51;640.20;1510.40
55719;DHT22;41623;46.104;19.656;2022-09-09T13:18:22;640.20;1510.40
55719;DHT22;41623;46.104;19.656;2022-09-09T13:20:49;640.20;1510.40
55719;DHT22;41623;46.104;19.656;2022-09-09T13:23:17;640.20;1510.40
55719;DHT22;41623;46.104;19.656;2022-09-09T13:26:21;640.20;1510.40
55719;DHT22;41623;46.104;19.656;2022-09-09T13:28:48;640.20;1510.40
55719;DHT22;41623;46.104;19.656;2022-09-09T13:31:28;640.20;1536.00
55719;DHT22;41623;46.104;19.656;2022-09-09T13:33:54;640.20;1536.00
55719;DHT22;41623;46.104;19.656;2022-09-09T13:36:30;640.20;1510.40
55719;DHT22;41623;46.104;19.656;2022-09-09T13:38:58;640.10;1510.40
55719;DHT22;41623;46.104;19.656;2022-09-09T13:41:35;640.20;1510.40
55719;DHT22;41623;46.104;19.656;2022-09-09T13:44:03;640.20;1536.00
55719;DHT22;41623;46.104;19.656;2022-09-09T13:48:59;640.20;1536.00
55719;DHT22;41623;46.104;19.656;2022-09-09T13:51:43;640.20;1510.40
55719;DHT22;41623;46.104;19.656;2022-09-09T13:54:14;640.20;1536.00
55719;DHT22;41623;46.104;19.656;2022-09-09T13:56:41;640.20;1510.40
55719;DHT22;41623;46.104;19.656;2022-09-09T13:59:12;640.20;1484.80
55719;DHT22;41623;46.104;19.656;2022-09-09T14:01:38;640.30;1484.80
55719;DHT22;41623;46.104;19.656;2022-09-09T14:04:04;640.20;1484.80
55719;DHT22;41623;46.104;19.656;2022-09-09T14:06:35;640.20;1484.80
55719;DHT22;41623;46.104;19.656;2022-09-09T14:09:10;640.20;1510.40
55719;DHT22;41623;46.104;19.656;2022-09-09T14:11:37;640.20;1510.40
55719;DHT22;41623;46.104;19.656;2022-09-09T14:14:03;640.20;1484.80
55719;DHT22;41623;46.104;19.656;2022-09-09T14:16:29;640.20;1484.80
55719;DHT22;41623;46.104;19.656;2022-09-09T14:18:55;640.30;1510.40
55719;DHT22;41623;46.104;19.656;2022-09-09T14:21:25;640.30;1510.40
55719;DHT22;41623;46.104;19.656;2022-09-09T14:23:51;640.20;1510.40
55719;DHT22;41623;46.104;19.656;2022-09-09T14:26:21;640.30;1510.40
55719;DHT22;41623;46.104;19.656;2022-09-09T14:28:48;640.20;1510.40
55719;DHT22;41623;46.104;19.656;2022-09-09T14:31:14;640.20;1510.40
55719;DHT22;41623;46.104;19.656;2022-09-09T14:33:40;640.20;1510.40
55719;DHT22;41623;46.104;19.656;2022-09-09T14:36:06;640.30;1510.40
55719;DHT22;41623;46.104;19.656;2022-09-09T14:38:34;640.30;1510.40
55719;DHT22;41623;46.104;19.656;2022-09-09T14:41:04;640.30;1510.40
55719;DHT22;41623;46.104;19.656;2022-09-09T14:43:30;640.30;1510.40
55719;DHT22;41623;46.104;19.656;2022-09-09T14:46:04;640.30;1510.40
55719;DHT22;41623;46.104;19.656;2022-09-09T14:48:31;640.20;1510.40
55719;DHT22;41623;46.104;19.656;2022-09-09T14:50:56;640.30;1510.40
55719;DHT22;41623;46.104;19.656;2022-09-09T14:53:22;640.20;1510.40
55719;DHT22;41623;46.104;19.656;2022-09-09T14:55:48;640.30;1510.40
55719;DHT22;41623;46.104;19.656;2022-09-09T14:58:14;640.20;1510.40
55719;DHT22;41623;46.104;19.656;2022-09-09T15:00:40;640.20;1510.40
55719;DHT22;41623;46.104;19.656;2022-09-09T15:03:06;640.20;1510.40
55719;DHT22;41623;46.104;19.656;2022-09-09T15:05:32;640.20;1510.40
55719;DHT22;41623;46.104;19.656;2022-09-09T15:07:58;640.30;1510.40
55719;DHT22;41623;46.104;19.656;2022-09-09T15:10:24;640.20;1510.40
55719;DHT22;41623;46.104;19.656;2022-09-09T15:12:50;640.20;1510.40
55719;DHT22;41623;46.104;19.656;2022-09-09T15:15:15;640.30;1510.40
55719;DHT22;41623;46.104;19.656;2022-09-09T15:17:41;640.20;1510.40
55719;DHT22;41623;46.104;19.656;2022-09-09T15:20:07;640.30;1510.40
55719;DHT22;41623;46.104;19.656;2022-09-09T15:22:33;640.20;1510.40
55719;DHT22;41623;46.104;19.656;2022-09-09T15:25:01;640.20;1510.40
55719;DHT22;41623;46.104;19.656;2022-09-09T15:27:27;640.20;1510.40
55719;DHT22;41623;46.104;19.656;2022-09-09T15:29:53;640.30;1510.40
55719;DHT22;41623;46.104;19.656;2022-09-09T15:32:18;640.30;1510.40
55719;DHT22;41623;46.104;19.656;2022-09-09T15:34:44;640.20;1510.40
55719;DHT22;41623;46.104;19.656;2022-09-09T15:37:11;640.30;1510.40
55719;DHT22;41623;46.104;19.656;2022-09-09T15:39:40;640.30;1510.40
55719;DHT22;41623;46.104;19.656;2022-09-09T15:42:06;640.30;1510.40
55719;DHT22;41623;46.104;19.656;2022-09-09T15:44:40;640.30;1510.40
55719;DHT22;41623;46.104;19.656;2022-09-09T15:47:08;640.30;1510.40
55719;DHT22;41623;46.104;19.656;2022-09-09T15:49:35;640.30;1510.40
55719;DHT22;41623;46.104;19.656;2022-09-09T15:52:01;640.30;1510.40
55719;DHT22;41623;46.104;19.656;2022-09-09T15:54:32;640.30;1484.80
55719;DHT22;41623;46.104;19.656;2022-09-09T15:57:01;640.30;1484.80
55719;DHT22;41623;46.104;19.656;2022-09-09T15:59:28;640.30;1510.40
55719;DHT22;41623;46.104;19.656;2022-09-09T16:01:55;640.30;1484.80
55719;DHT22;41623;46.104;19.656;2022-09-09T16:04:22;640.30;1484.80
55719;DHT22;41623;46.104;19.656;2022-09-09T16:06:52;640.30;1408.00
55719;DHT22;41623;46.104;19.656;2022-09-09T16:09:18;640.30;1484.80
55719;DHT22;41623;46.104;19.656;2022-09-09T16:11:45;640.30;1459.20
55719;DHT22;41623;46.104;19.656;2022-09-09T16:14:12;640.30;1459.20
55719;DHT22;41623;46.104;19.656;2022-09-09T16:16:38;640.30;1433.60
55719;DHT22;41623;46.104;19.656;2022-09-09T16:19:06;640.40;1484.80
55719;DHT22;41623;46.104;19.656;2022-09-09T16:21:44;640.30;1433.60
55719;DHT22;41623;46.104;19.656;2022-09-09T16:24:12;640.40;1459.20
55719;DHT22;41623;46.104;19.656;2022-09-09T16:26:40;640.40;1459.20
55719;DHT22;41623;46.104;19.656;2022-09-09T16:29:08;640.40;1459.20
55719;DHT22;41623;46.104;19.656;2022-09-09T16:31:34;640.40;1484.80
55719;DHT22;41623;46.104;19.656;2022-09-09T16:34:00;640.30;1382.40
55719;DHT22;41623;46.104;19.656;2022-09-09T16:36:28;640.40;1459.20
55719;DHT22;41623;46.104;19.656;2022-09-09T16:38:57;640.40;1433.60
55719;DHT22;41623;46.104;19.656;2022-09-09T16:41:25;640.40;1408.00
55719;DHT22;41623;46.104;19.656;2022-09-09T16:43:57;640.40;1356.80
55719;DHT22;41623;46.104;19.656;2022-09-09T16:46:25;640.40;1408.00
55719;DHT22;41623;46.104;19.656;2022-09-09T16:48:53;640.40;1382.40
55719;DHT22;41623;46.104;19.656;2022-09-09T16:51:31;640.20;1433.60
55719;DHT22;41623;46.104;19.656;2022-09-09T16:54:02;640.40;1433.60
55719;DHT22;41623;46.104;19.656;2022-09-09T16:56:30;640.40;1433.60
55719;DHT22;41623;46.104;19.656;2022-09-09T16:59:03;640.40;1433.60
55719;DHT22;41623;46.104;19.656;2022-09-09T17:01:33;640.40;1459.20
55719;DHT22;41623;46.104;19.656;2022-09-09T17:04:02;640.40;1433.60
55719;DHT22;41623;46.104;19.656;2022-09-09T17:06:29;640.40;1382.40
55719;DHT22;41623;46.104;19.656;2022-09-09T17:09:00;640.40;1408.00
55719;DHT22;41623;46.104;19.656;2022-09-09T17:11:27;640.40;1382.40
55719;DHT22;41623;46.104;19.656;2022-09-09T17:13:54;640.50;1433.60
55719;DHT22;41623;46.104;19.656;2022-09-09T17:16:22;640.40;1459.20
55719;DHT22;41623;46.104;19.656;2022-09-09T17:18:51;640.40;1459.20
55719;DHT22;41623;46.104;19.656;2022-09-09T17:21:20;640.40;1459.20
55719;DHT22;41623;46.104;19.656;2022-09-09T17:23:47;640.40;1484.80
55719;DHT22;41623;46.104;19.656;2022-09-09T17:26:18;640.40;1484.80
55719;DHT22;41623;46.104;19.656;2022-09-09T17:28:44;640.40;1459.20
55719;DHT22;41623;46.104;19.656;2022-09-09T17:31:13;640.40;1459.20
55719;DHT22;41623;46.104;19.656;2022-09-09T17:33:41;640.40;1459.20
55719;DHT22;41623;46.104;19.656;2022-09-09T17:36:22;640.40;1382.40
55719;DHT22;41623;46.104;19.656;2022-09-09T17:38:48;640.40;1484.80
55719;DHT22;41623;46.104;19.656;2022-09-09T17:41:18;640.30;1484.80
55719;DHT22;41623;46.104;19.656;2022-09-09T17:43:45;640.30;1484.80
55719;DHT22;41623;46.104;19.656;2022-09-09T17:46:12;640.30;1484.80
55719;DHT22;41623;46.104;19.656;2022-09-09T17:48:39;640.40;1484.80
55719;DHT22;41623;46.104;19.656;2022-09-09T17:51:13;640.30;1484.80
55719;DHT22;41623;46.104;19.656;2022-09-09T17:53:41;640.30;1484.80
55719;DHT22;41623;46.104;19.656;2022-09-09T17:56:09;640.30;1484.80
55719;DHT22;41623;46.104;19.656;2022-09-09T17:58:36;640.30;1484.80
55719;DHT22;41623;46.104;19.656;2022-09-09T18:01:28;640.30;1510.40
55719;DHT22;41623;46.104;19.656;2022-09-09T18:03:53;640.30;1484.80
55719;DHT22;41623;46.104;19.656;2022-09-09T18:06:21;640.40;1510.40
55719;DHT22;41623;46.104;19.656;2022-09-09T18:08:51;640.40;1484.80
55719;DHT22;41623;46.104;19.656;2022-09-09T18:11:19;640.40;1484.80
55719;DHT22;41623;46.104;19.656;2022-09-09T18:13:53;640.40;1459.20
55719;DHT22;41623;46.104;19.656;2022-09-09T18:16:21;640.30;1484.80
55719;DHT22;41623;46.104;19.656;2022-09-09T18:18:50;640.30;1510.40
55719;DHT22;41623;46.104;19.656;2022-09-09T18:21:17;640.40;1510.40
55719;DHT22;41623;46.104;19.656;2022-09-09T18:23:44;640.40;1510.40
55719;DHT22;41623;46.104;19.656;2022-09-09T18:26:22;640.30;1510.40
55719;DHT22;41623;46.104;19.656;2022-09-09T18:29:00;640.40;1510.40
55719;DHT22;41623;46.104;19.656;2022-09-09T18:31:30;640.40;1510.40
55719;DHT22;41623;46.104;19.656;2022-09-09T18:34:10;640.40;1510.40
55719;DHT22;41623;46.104;19.656;2022-09-09T18:36:46;640.30;1510.40
55719;DHT22;41623;46.104;19.656;2022-09-09T18:39:15;640.40;1510.40
55719;DHT22;41623;46.104;19.656;2022-09-09T18:41:47;640.40;1510.40
55719;DHT22;41623;46.104;19.656;2022-09-09T18:44:16;640.40;1510.40
55719;DHT22;41623;46.104;19.656;2022-09-09T18:46:42;640.40;1484.80
55719;DHT22;41623;46.104;19.656;2022-09-09T18:49:09;640.40;1484.80
55719;DHT22;41623;46.104;19.656;2022-09-09T18:51:39;640.40;1510.40
55719;DHT22;41623;46.104;19.656;2022-09-09T18:54:14;640.40;1510.40
55719;DHT22;41623;46.104;19.656;2022-09-09T18:56:41;640.30;1510.40
55719;DHT22;41623;46.104;19.656;2022-09-09T18:59:09;640.40;1510.40
55719;DHT22;41623;46.104;19.656;2022-09-09T19:01:35;640.40;1510.40
55719;DHT22;41623;46.104;19.656;2022-09-09T19:04:02;640.30;1510.40
55719;DHT22;41623;46.104;19.656;2022-09-09T19:06:31;640.40;1510.40
55719;DHT22;41623;46.104;19.656;2022-09-09T19:08:57;640.40;1510.40
55719;DHT22;41623;46.104;19.656;2022-09-09T19:11:24;640.40;1510.40
55719;DHT22;41623;46.104;19.656;2022-09-09T19:13:58;640.40;1510.40
55719;DHT22;41623;46.104;19.656;2022-09-09T19:16:27;640.40;1510.40
55719;DHT22;41623;46.104;19.656;2022-09-09T19:18:54;640.40;1510.40
55719;DHT22;41623;46.104;19.656;2022-09-09T19:21:33;640.40;1510.40
55719;DHT22;41623;46.104;19.656;2022-09-09T19:24:03;640.40;1510.40
55719;DHT22;41623;46.104;19.656;2022-09-09T19:26:35;640.40;1536.00
55719;DHT22;41623;46.104;19.656;2022-09-09T19:29:15;640.30;1536.00
55719;DHT22;41623;46.104;19.656;2022-09-09T19:31:42;640.30;1536.00
55719;DHT22;41623;46.104;19.656;2022-09-09T19:34:09;640.30;1536.00
55719;DHT22;41623;46.104;19.656;2022-09-09T19:36:35;640.10;1536.00
55719;DHT22;41623;46.104;19.656;2022-09-09T19:39:02;640.30;1536.00
55719;DHT22;41623;46.104;19.656;2022-09-09T19:41:28;640.30;1536.00
55719;DHT22;41623;46.104;19.656;2022-09-09T19:43:57;640.30;1536.00
55719;DHT22;41623;46.104;19.656;2022-09-09T19:46:28;640.30;1561.60
55719;DHT22;41623;46.104;19.656;2022-09-09T19:48:55;640.30;1561.60
55719;DHT22;41623;46.104;19.656;2022-09-09T19:51:22;640.30;1561.60
55719;DHT22;41623;46.104;19.656;2022-09-09T19:53:53;640.30;1536.00
55719;DHT22;41623;46.104;19.656;2022-09-09T19:56:24;640.30;1536.00
55719;DHT22;41623;46.104;19.656;2022-09-09T19:58:51;640.30;1536.00
55719;DHT22;41623;46.104;19.656;2022-09-09T20:01:21;640.30;1536.00
55719;DHT22;41623;46.104;19.656;2022-09-09T20:03:49;640.30;1536.00
55719;DHT22;41623;46.104;19.656;2022-09-09T20:06:18;640.30;1536.00
55719;DHT22;41623;46.104;19.656;2022-09-09T20:08:46;640.30;1536.00
55719;DHT22;41623;46.104;19.656;2022-09-09T20:11:13;640.30;1536.00
55719;DHT22;41623;46.104;19.656;2022-09-09T20:13:40;640.30;1536.00
55719;DHT22;41623;46.104;19.656;2022-09-09T20:16:13;640.30;1536.00
55719;DHT22;41623;46.104;19.656;2022-09-09T20:18:42;640.30;1536.00
55719;DHT22;41623;46.104;19.656;2022-09-09T20:21:15;640.30;1536.00
55719;DHT22;41623;46.104;19.656;2022-09-09T20:23:42;640.30;1536.00
55719;DHT22;41623;46.104;19.656;2022-09-09T20:26:13;640.40;1536.00
55719;DHT22;41623;46.104;19.656;2022-09-09T20:28:40;640.30;1536.00
55719;DHT22;41623;46.104;19.656;2022-09-09T20:34:06;640.40;1536.00
55719;DHT22;41623;46.104;19.656;2022-09-09T20:36:34;640.30;1536.00
55719;DHT22;41623;46.104;19.656;2022-09-09T20:39:06;640.30;1536.00
55719;DHT22;41623;46.104;19.656;2022-09-09T20:41:34;640.30;1536.00
55719;DHT22;41623;46.104;19.656;2022-09-09T20:44:05;640.20;1536.00
55719;DHT22;41623;46.104;19.656;2022-09-09T20:46:33;640.20;1536.00
55719;DHT22;41623;46.104;19.656;2022-09-09T20:49:01;640.20;1561.60
55719;DHT22;41623;46.104;19.656;2022-09-09T20:51:28;640.10;1561.60
55719;DHT22;41623;46.104;19.656;2022-09-09T20:54:02;640.10;1561.60
55719;DHT22;41623;46.104;19.656;2022-09-09T20:56:30;640.10;1587.20
55719;DHT22;41623;46.104;19.656;2022-09-09T20:59:01;640.10;1587.20
55719;DHT22;41623;46.104;19.656;2022-09-09T21:01:27;640.00;1612.80
55719;DHT22;41623;46.104;19.656;2022-09-09T21:03:53;615.20;1638.40
55719;DHT22;41623;46.104;19.656;2022-09-09T21:06:18;615.20;1638.40
55719;DHT22;41623;46.104;19.656;2022-09-09T21:08:45;615.20;1612.80
55719;DHT22;41623;46.104;19.656;2022-09-09T21:11:12;615.20;1587.20
55719;DHT22;41623;46.104;19.656;2022-09-09T21:13:39;615.20;1638.40
55719;DHT22;41623;46.104;19.656;2022-09-09T21:16:07;615.20;1664.00
55719;DHT22;41623;46.104;19.656;2022-09-09T21:18:33;615.10;1638.40
55719;DHT22;41623;46.104;19.656;2022-09-09T21:21:00;615.20;1612.80
55719;DHT22;41623;46.104;19.656;2022-09-09T21:23:27;615.20;1612.80
55719;DHT22;41623;46.104;19.656;2022-09-09T21:25:55;615.30;1587.20
55719;DHT22;41623;46.104;19.656;2022-09-09T21:28:22;615.30;1587.20
55719;DHT22;41623;46.104;19.656;2022-09-09T21:30:49;615.30;1587.20
55719;DHT22;41623;46.104;19.656;2022-09-09T21:33:16;640.00;1587.20
55719;DHT22;41623;46.104;19.656;2022-09-09T21:35:43;640.00;1587.20
55719;DHT22;41623;46.104;19.656;2022-09-09T21:38:20;640.00;1587.20
55719;DHT22;41623;46.104;19.656;2022-09-09T21:40:46;640.00;1587.20
55719;DHT22;41623;46.104;19.656;2022-09-09T21:43:17;640.00;1587.20
55719;DHT22;41623;46.104;19.656;2022-09-09T21:45:43;640.00;1587.20
55719;DHT22;41623;46.104;19.656;2022-09-09T21:48:12;640.00;1587.20
55719;DHT22;41623;46.104;19.656;2022-09-09T21:50:39;640.00;1587.20
55719;DHT22;41623;46.104;19.656;2022-09-09T21:53:05;640.10;1587.20
55719;DHT22;41623;46.104;19.656;2022-09-09T21:55:33;640.00;1612.80
55719;DHT22;41623;46.104;19.656;2022-09-09T21:57:59;640.00;1664.00
55719;DHT22;41623;46.104;19.656;2022-09-09T22:00:25;615.30;1664.00
55719;DHT22;41623;46.104;19.656;2022-09-09T22:02:51;615.20;1689.60
55719;DHT22;41623;46.104;19.656;2022-09-09T22:05:17;615.20;1689.60
55719;DHT22;41623;46.104;19.656;2022-09-09T22:07:42;615.10;1689.60
55719;DHT22;41623;46.104;19.656;2022-09-09T22:10:08;615.00;1689.60
55719;DHT22;41623;46.104;19.656;2022-09-09T22:12:36;615.00;1689.60
55719;DHT22;41623;46.104;19.656;2022-09-09T22:15:02;615.00;1715.20
55719;DHT22;41623;46.104;19.656;2022-09-09T22:17:28;615.10;1715.20
55719;DHT22;41623;46.104;19.656;2022-09-09T22:27:13;614.90;1766.40
55719;DHT22;41623;46.104;19.656;2022-09-09T22:29:40;614.40;1817.60
55719;DHT22;41623;46.104;19.656;2022-09-09T22:32:06;589.70;1817.60
55719;DHT22;41623;46.104;19.656;2022-09-09T22:34:32;589.70;1817.60
55719;DHT22;41623;46.104;19.656;2022-09-09T22:37:01;589.70;1766.40
55719;DHT22;41623;46.104;19.656;2022-09-09T22:39:27;589.70;1740.80
55719;DHT22;41623;46.104;19.656;2022-09-09T22:41:53;614.40;1740.80
55719;DHT22;41623;46.104;19.656;2022-09-09T22:44:25;614.50;1689.60
55719;DHT22;41623;46.104;19.656;2022-09-09T22:46:51;614.50;1766.40
55719;DHT22;41623;46.104;19.656;2022-09-09T22:49:17;614.40;1766.40
55719;DHT22;41623;46.104;19.656;2022-09-09T22:51:43;614.40;1766.40
55719;DHT22;41623;46.104;19.656;2022-09-09T22:54:09;589.70;1792.00
55719;DHT22;41623;46.104;19.656;2022-09-09T22:56:35;589.70;1792.00
55719;DHT22;41623;46.104;19.656;2022-09-09T22:59:01;589.70;1817.60
55719;DHT22;41623;46.104;19.656;2022-09-09T23:01:27;589.60;1817.60
55719;DHT22;41623;46.104;19.656;2022-09-09T23:03:55;589.60;1843.20
55719;DHT22;41623;46.104;19.656;2022-09-09T23:06:26;589.60;1817.60
55719;DHT22;41623;46.104;19.656;2022-09-09T23:08:57;589.70;1740.80
55719;DHT22;41623;46.104;19.656;2022-09-09T23:11:26;589.70;1715.20
55719;DHT22;41623;46.104;19.656;2022-09-09T23:13:56;614.50;1715.20
55719;DHT22;41623;46.104;19.656;2022-09-09T23:16:35;614.60;1689.60
55719;DHT22;41623;46.104;19.656;2022-09-09T23:19:05;614.70;1664.00
55719;DHT22;41623;46.104;19.656;2022-09-09T23:21:34;614.80;1664.00
55719;DHT22;41623;46.104;19.656;2022-09-09T23:24:02;614.80;1664.00
55719;DHT22;41623;46.104;19.656;2022-09-09T23:26:29;614.90;1664.00
55719;DHT22;41623;46.104;19.656;2022-09-09T23:28:57;614.90;1638.40
55719;DHT22;41623;46.104;19.656;2022-09-09T23:31:23;614.90;1689.60
55719;DHT22;41623;46.104;19.656;2022-09-09T23:33:51;614.90;1664.00
55719;DHT22;41623;46.104;19.656;2022-09-09T23:36:21;615.00;1664.00
55719;DHT22;41623;46.104;19.656;2022-09-09T23:38:47;615.00;1689.60
55719;DHT22;41623;46.104;19.656;2022-09-09T23:41:16;615.00;1638.40
55719;DHT22;41623;46.104;19.656;2022-09-09T23:43:49;615.00;1689.60
55719;DHT22;41623;46.104;19.656;2022-09-09T23:46:18;614.90;1715.20
55719;DHT22;41623;46.104;19.656;2022-09-09T23:48:45;614.80;1740.80
55719;DHT22;41623;46.104;19.656;2022-09-09T23:51:15;614.70;1740.80
55719;DHT22;41623;46.104;19.656;2022-09-09T23:53:46;614.60;1766.40
55719;DHT22;41623;46.104;19.656;2022-09-09T23:56:22;614.50;1766.40
55719;DHT22;41623;46.104;19.656;2022-09-09T23:58:49;589.70;1766.40
